Newtok, Alaska
Current Conditions -  °F | °C
As of 1:53 AM on Sunday 23 Nov 2014 (Local Time) from PABE Reporting Station
Few Clouds Few Clouds  
Wind Chill: -1°   Ceiling: Unl
Heat Index: 13°   Visibility: 10mi
Dew Point:   Wind: 12mph
Humidity: 81%   Direction: 10°N
Pressure: 29.24"   Gusts: NA
Location:  60.7494°N, 161.727°W
Report Text: PABE 231053Z 01010KT 10SM FEW150 M11/M13 A2924 RMK AO2 SLP904 T11061133
Loading
Personal Weather Stations






























Interactive Weather Map New forecast layout! Learn more

10-Day Weather Forecast

Advertisements
Track Severe Weather on mobile